createdAt,value
2023-03-20T00:00:19.987Z,100284.72
2023-03-20T00:02:54.383Z,100284.23
2023-03-20T00:05:30.317Z,100280.98
2023-03-20T00:08:03.667Z,100272.58
2023-03-20T00:10:46.499Z,100274.55
2023-03-20T00:13:29.082Z,100276.20
2023-03-20T00:16:03.094Z,100270.14
2023-03-20T00:18:36.370Z,100273.12
2023-03-20T00:21:20.531Z,100271.70
2023-03-20T00:23:55.750Z,100271.45
2023-03-20T00:26:46.670Z,100267.72
2023-03-20T00:29:28.904Z,100267.84
2023-03-20T00:32:02.090Z,100259.97
2023-03-20T00:34:36.102Z,100259.16
2023-03-20T00:37:12.033Z,100263.57
2023-03-20T00:39:45.023Z,100254.14
2023-03-20T00:42:22.548Z,100253.77
2023-03-20T00:44:59.841Z,100255.08
2023-03-20T00:47:32.777Z,100259.19
2023-03-20T00:50:19.617Z,100260.12
2023-03-20T00:52:53.924Z,100261.91
2023-03-20T00:55:29.660Z,100254.80
2023-03-20T00:58:04.682Z,100252.36
2023-03-20T01:00:45.852Z,100252.60
2023-03-20T01:03:27.861Z,100250.81
2023-03-20T01:06:00.701Z,100260.38
2023-03-20T01:08:33.809Z,100245.66
2023-03-20T01:11:06.959Z,100260.63
2023-03-20T01:13:40.937Z,100244.75
2023-03-20T01:16:25.061Z,100247.98
2023-03-20T01:18:58.206Z,100247.34
2023-03-20T01:21:32.001Z,100246.95
2023-03-20T01:24:06.707Z,100250.69
2023-03-20T01:26:45.378Z,100249.78
2023-03-20T01:29:24.457Z,100249.12
2023-03-20T01:31:57.577Z,100246.39
2023-03-20T01:34:31.567Z,100247.94
2023-03-20T01:37:05.386Z,100247.17
2023-03-20T01:39:39.893Z,100244.48
2023-03-20T01:42:16.695Z,100244.73
2023-03-20T01:44:49.576Z,100239.31
2023-03-20T01:47:26.220Z,100234.92
2023-03-20T01:50:23.978Z,100242.41
2023-03-20T01:53:23.975Z,100237.52
2023-03-20T01:56:00.634Z,100244.09
2023-03-20T01:58:39.430Z,100238.02
2023-03-20T02:01:16.295Z,100246.05
2023-03-20T02:03:50.963Z,100241.47
2023-03-20T02:06:27.641Z,100246.90
2023-03-20T02:09:13.020Z,100248.84
2023-03-20T02:11:49.160Z,100244.69
2023-03-20T02:14:23.612Z,100246.91
2023-03-20T02:17:01.762Z,100243.03
2023-03-20T02:20:24.549Z,100237.06
2023-03-20T02:23:37.867Z,100242.91
2023-03-20T02:26:42.887Z,100244.97
2023-03-20T02:29:48.484Z,100242.00
2023-03-20T02:32:47.302Z,100236.05
2023-03-20T02:35:33.789Z,100230.53
2023-03-20T02:38:35.323Z,100232.34
2023-03-20T02:41:25.381Z,100234.92
2023-03-20T02:44:06.264Z,100228.21
2023-03-20T02:46:47.220Z,100230.27
2023-03-20T02:50:00.870Z,100230.27
2023-03-20T02:52:50.888Z,100224.08
2023-03-20T02:55:44.419Z,100219.56
2023-03-20T02:58:35.876Z,100221.22
2023-03-20T03:01:16.238Z,100222.41
2023-03-20T03:03:53.657Z,100224.08
2023-03-20T03:06:36.168Z,100222.93
2023-03-20T03:09:22.896Z,100216.59
2023-03-20T03:12:00.669Z,100216.98
2023-03-20T03:14:50.222Z,100216.98
2023-03-20T03:17:26.021Z,100209.87
2023-03-20T03:20:05.130Z,100212.23
2023-03-20T03:22:38.647Z,100218.69
2023-03-20T03:25:14.264Z,100216.59
2023-03-20T03:27:52.301Z,100210.66
2023-03-20T03:30:34.391Z,100219.84
2023-03-20T03:33:31.587Z,100225.00
2023-03-20T03:36:16.658Z,100224.75
2023-03-20T03:38:52.380Z,100218.14
2023-03-20T03:41:42.136Z,100222.80
2023-03-20T03:44:34.237Z,100223.30
2023-03-20T03:47:31.284Z,100219.95
2023-03-20T03:50:09.180Z,100218.02
2023-03-20T03:52:44.062Z,100219.80
2023-03-20T03:55:25.825Z,100218.64
2023-03-20T03:58:13.967Z,100226.52
2023-03-20T04:00:50.052Z,100232.34
2023-03-20T04:03:26.016Z,100235.95
2023-03-20T04:06:01.185Z,100237.09
2023-03-20T04:08:36.480Z,100241.37
2023-03-20T04:11:08.638Z,100240.48
2023-03-20T04:13:42.658Z,100233.74
2023-03-20T04:16:17.378Z,100242.52
2023-03-20T04:18:51.052Z,100237.72
2023-03-20T04:21:25.118Z,100237.98
2023-03-20T04:23:58.013Z,100241.73
2023-03-20T04:26:31.258Z,100240.58
2023-03-20T04:29:04.790Z,100243.31
2023-03-20T04:31:40.024Z,100241.77
2023-03-20T04:34:18.337Z,100239.05
2023-03-20T04:37:02.718Z,100233.89
2023-03-20T04:39:37.950Z,100233.61
2023-03-20T04:42:12.159Z,100243.46
2023-03-20T04:44:46.349Z,100242.94
2023-03-20T04:47:19.808Z,100242.05
2023-03-20T04:49:53.446Z,100250.94
2023-03-20T04:52:27.138Z,100248.98
2023-03-20T04:55:01.151Z,100249.63
2023-03-20T04:57:35.421Z,100249.48
2023-03-20T05:00:11.776Z,100250.53
2023-03-20T05:02:45.968Z,100248.57
2023-03-20T05:05:20.643Z,100250.27
2023-03-20T05:07:55.276Z,100244.56
2023-03-20T05:10:39.363Z,100250.79
2023-03-20T05:13:14.019Z,100249.38
2023-03-20T05:15:58.242Z,100256.47
2023-03-20T05:18:45.775Z,100250.79
2023-03-20T05:21:36.974Z,100255.41
2023-03-20T05:24:14.807Z,100256.06
2023-03-20T05:26:52.098Z,100261.73
2023-03-20T05:29:43.211Z,100262.25
2023-03-20T05:32:21.046Z,100259.03
2023-03-20T05:34:58.259Z,100262.11
2023-03-20T05:37:33.687Z,100266.39
2023-03-20T05:40:15.090Z,100260.70
2023-03-20T05:43:05.974Z,100264.55
2023-03-20T05:45:57.746Z,100265.67
2023-03-20T05:48:33.201Z,100257.23
2023-03-20T05:51:14.140Z,100258.05
2023-03-20T05:53:57.846Z,100257.52
2023-03-20T05:56:44.655Z,100261.92
2023-03-20T05:59:19.698Z,100277.42
2023-03-20T06:02:10.675Z,100273.23
2023-03-20T06:04:45.988Z,100271.17
2023-03-20T06:07:20.535Z,100265.00
2023-03-20T06:09:56.133Z,100271.23
2023-03-20T06:12:28.915Z,100269.50
2023-03-20T06:15:02.090Z,100268.06
2023-03-20T06:17:36.912Z,100263.87
2023-03-20T06:20:12.926Z,100268.85
2023-03-20T06:22:46.666Z,100271.08
2023-03-20T06:25:22.134Z,100266.83
2023-03-20T06:27:58.344Z,100266.98
2023-03-20T06:30:31.930Z,100276.80
2023-03-20T06:33:07.580Z,100276.28
2023-03-20T06:35:42.264Z,100269.25
2023-03-20T06:38:17.202Z,100262.75
2023-03-20T06:40:50.856Z,100265.82
2023-03-20T06:43:27.173Z,100258.54
2023-03-20T06:46:00.289Z,100266.39
2023-03-20T06:48:35.792Z,100262.74
2023-03-20T06:51:10.561Z,100255.86
2023-03-20T06:53:45.113Z,100253.82
2023-03-20T06:56:22.738Z,100254.85
2023-03-20T06:58:56.460Z,100265.62
2023-03-20T07:01:30.336Z,100254.66
2023-03-20T07:04:03.310Z,100256.55
2023-03-20T07:06:38.795Z,100254.55
2023-03-20T07:09:11.806Z,100250.55
2023-03-20T07:11:45.357Z,100247.64
2023-03-20T07:14:20.157Z,100254.23
2023-03-20T07:16:56.668Z,100260.17
2023-03-20T07:19:28.774Z,100267.04
2023-03-20T07:22:05.777Z,100265.13
2023-03-20T07:24:40.900Z,100270.32
2023-03-20T07:27:14.353Z,100264.90
2023-03-20T07:29:48.081Z,100268.36
2023-03-20T07:32:22.664Z,100265.09
2023-03-20T07:34:59.129Z,100262.20
2023-03-20T07:37:34.182Z,100262.91
2023-03-20T07:40:09.136Z,100262.13
2023-03-20T07:42:45.980Z,100260.77
2023-03-20T07:45:20.799Z,100260.25
2023-03-20T07:47:54.083Z,100256.17
2023-03-20T07:50:26.969Z,100260.40
2023-03-20T07:52:59.923Z,100253.38
2023-03-20T07:55:33.064Z,100250.23
2023-03-20T07:58:06.728Z,100261.42
2023-03-20T08:00:39.933Z,100258.75
2023-03-20T08:03:12.881Z,100257.30
2023-03-20T08:05:47.453Z,100257.89
2023-03-20T08:08:21.693Z,100252.42
2023-03-20T08:10:54.519Z,100250.53
2023-03-20T08:13:29.268Z,100252.27
2023-03-20T08:16:02.119Z,100242.71
2023-03-20T08:18:35.422Z,100245.84
2023-03-20T08:21:09.159Z,100242.08
2023-03-20T08:23:42.338Z,100246.09
2023-03-20T08:26:16.322Z,100241.63
2023-03-20T08:28:51.405Z,100242.73
2023-03-20T08:31:24.494Z,100241.13
2023-03-20T08:33:58.069Z,100236.56
2023-03-20T08:36:31.636Z,100244.00
2023-03-20T08:39:07.218Z,100240.41
2023-03-20T08:41:42.319Z,100238.02
2023-03-20T08:44:16.669Z,100242.23
2023-03-20T08:46:49.782Z,100237.03
2023-03-20T08:49:22.683Z,100234.45
2023-03-20T08:51:56.368Z,100235.14
2023-03-20T08:54:30.081Z,100227.94
2023-03-20T08:57:03.592Z,100226.52
2023-03-20T08:59:36.986Z,100222.00
2023-03-20T09:02:12.404Z,100218.11
2023-03-20T09:04:45.290Z,100218.88
2023-03-20T09:07:18.844Z,100215.88
2023-03-20T09:09:51.854Z,100215.64
2023-03-20T09:12:25.126Z,100207.80
2023-03-20T09:14:57.984Z,100208.69
2023-03-20T09:17:31.938Z,100211.59
2023-03-20T09:20:05.544Z,100204.76
2023-03-20T09:22:40.502Z,100206.73
2023-03-20T09:25:13.817Z,100205.09
2023-03-20T09:27:47.172Z,100204.73
2023-03-20T09:30:19.930Z,100194.59
2023-03-20T09:32:54.112Z,100200.50
2023-03-20T09:35:27.024Z,100192.21
2023-03-20T09:37:59.952Z,100190.03
2023-03-20T09:40:52.621Z,100190.81
2023-03-20T09:44:11.389Z,100183.96
2023-03-20T09:47:20.496Z,100176.66
2023-03-20T09:49:59.665Z,100176.64
2023-03-20T09:52:40.818Z,100173.85
2023-03-20T09:55:21.033Z,100169.30
2023-03-20T09:57:58.274Z,100164.20
2023-03-20T10:00:33.107Z,100163.08
2023-03-20T10:03:15.003Z,100159.41
2023-03-20T10:06:09.114Z,100152.61
2023-03-20T10:08:43.561Z,100138.41
2023-03-20T10:11:44.933Z,100148.87
2023-03-20T10:14:41.209Z,100147.66
2023-03-20T10:17:24.531Z,100144.08
2023-03-20T10:20:29.673Z,100139.01
2023-03-20T10:23:18.879Z,100133.34
2023-03-20T10:26:11.344Z,100136.33
2023-03-20T10:28:54.833Z,100130.55
2023-03-20T10:31:51.366Z,100139.17
2023-03-20T10:34:56.815Z,100130.46
2023-03-20T10:37:58.805Z,100129.95
2023-03-20T10:40:39.805Z,100121.33
2023-03-20T10:43:25.515Z,100125.09
2023-03-20T10:46:17.855Z,100119.36
2023-03-20T10:48:56.348Z,100113.16
2023-03-20T10:51:42.155Z,100116.95
2023-03-20T10:54:25.175Z,100118.91
2023-03-20T10:57:06.797Z,100107.50
2023-03-20T10:59:55.052Z,100106.11
2023-03-20T11:02:33.042Z,100113.78
2023-03-20T11:05:37.142Z,100103.44
2023-03-20T11:08:15.666Z,100098.72
2023-03-20T11:10:48.400Z,100091.87
2023-03-20T11:13:37.124Z,100091.98
2023-03-20T11:16:33.896Z,100090.55
2023-03-20T11:19:12.336Z,100085.42
2023-03-20T11:21:56.425Z,100091.11
2023-03-20T11:24:40.288Z,100087.45
2023-03-20T11:27:28.341Z,100081.61
2023-03-20T11:30:06.101Z,100080.64
2023-03-20T11:32:49.113Z,100080.23
2023-03-20T11:35:31.361Z,100081.46
2023-03-20T11:38:24.172Z,100081.00
2023-03-20T11:40:58.034Z,100079.94
2023-03-20T11:43:31.575Z,100071.39
2023-03-20T11:46:05.508Z,100074.55
2023-03-20T11:48:40.455Z,100064.19
2023-03-20T11:51:20.212Z,100066.25
2023-03-20T11:54:13.211Z,100062.23
2023-03-20T11:56:57.182Z,100056.30
2023-03-20T11:59:35.470Z,100056.92
2023-03-20T12:02:14.034Z,100058.55
2023-03-20T12:04:47.869Z,100054.88
2023-03-20T12:07:25.464Z,100060.43
2023-03-20T12:10:09.765Z,100058.95
2023-03-20T12:13:04.442Z,100053.11
2023-03-20T12:15:41.808Z,100050.31
2023-03-20T12:18:30.523Z,100048.44
2023-03-20T12:21:23.257Z,100048.25
2023-03-20T12:24:03.202Z,100042.77
2023-03-20T12:27:04.656Z,100041.61
2023-03-20T12:29:51.827Z,100046.42
2023-03-20T12:32:44.331Z,100044.38
2023-03-20T12:35:31.460Z,100038.50
2023-03-20T12:38:08.179Z,100036.43
2023-03-20T12:40:45.321Z,100037.08
2023-03-20T12:43:30.876Z,100035.16
2023-03-20T12:46:23.672Z,100033.20
2023-03-20T12:49:22.156Z,100027.85
2023-03-20T12:52:15.104Z,100029.81
2023-03-20T12:55:01.938Z,100026.92
2023-03-20T12:58:04.232Z,100022.73
2023-03-20T13:01:01.615Z,100022.07
2023-03-20T13:03:51.861Z,100023.03
2023-03-20T13:06:47.391Z,100025.72
2023-03-20T13:09:49.441Z,100019.67
2023-03-20T13:13:01.024Z,100014.59
2023-03-20T13:16:06.084Z,100016.13
2023-03-20T13:19:04.496Z,100014.97
2023-03-20T13:21:51.256Z,100008.88
2023-03-20T13:24:49.291Z,100007.05
2023-03-20T13:27:41.274Z,100001.31
2023-03-20T13:30:40.317Z,100005.23
2023-03-20T13:33:23.199Z,100003.92
2023-03-20T13:36:06.525Z,100002.63
2023-03-20T13:38:43.581Z,99995.66
2023-03-20T13:41:16.697Z,100002.27
2023-03-20T13:44:02.023Z,100002.77
2023-03-20T13:46:51.040Z,99995.80
2023-03-20T13:49:48.358Z,99998.10
2023-03-20T13:52:38.258Z,99993.75
2023-03-20T13:55:30.193Z,99997.26
2023-03-20T13:58:28.826Z,99991.21
2023-03-20T14:01:27.406Z,99986.86
2023-03-20T14:04:01.882Z,99987.70
2023-03-20T14:06:49.100Z,99985.09
2023-03-20T14:09:37.220Z,99984.09
2023-03-20T14:12:13.877Z,99988.87
2023-03-20T14:14:58.935Z,99984.45
2023-03-20T14:17:33.177Z,99988.38
2023-03-20T14:20:31.123Z,99985.75
2023-03-20T14:23:06.001Z,99984.87
2023-03-20T14:25:44.053Z,99978.64
2023-03-20T14:28:27.770Z,99986.92
2023-03-20T14:31:26.533Z,99984.66
2023-03-20T14:34:22.113Z,99981.00
2023-03-20T14:37:06.483Z,99982.62
2023-03-20T14:39:47.100Z,99990.75
2023-03-20T14:42:30.500Z,99979.17
2023-03-20T14:45:48.334Z,99989.88
2023-03-20T14:48:43.861Z,99987.95
2023-03-20T14:51:42.522Z,99989.92
2023-03-20T14:54:29.387Z,99998.12
2023-03-20T14:57:13.160Z,100000.08
2023-03-20T14:59:46.322Z,100001.66
2023-03-20T15:02:32.752Z,100002.89
2023-03-20T15:05:06.480Z,100009.28
2023-03-20T15:07:40.316Z,100003.51
2023-03-20T15:10:13.485Z,100004.73
2023-03-20T15:12:46.668Z,100005.97
2023-03-20T15:15:31.874Z,100004.02
2023-03-20T15:18:15.746Z,100011.70
2023-03-20T15:20:49.104Z,100013.04
2023-03-20T15:23:23.570Z,100019.77
2023-03-20T15:25:56.506Z,100018.06
2023-03-20T15:28:31.592Z,100025.66
2023-03-20T15:31:05.068Z,100028.81
2023-03-20T15:33:42.520Z,100028.10
2023-03-20T15:36:23.093Z,100029.09
2023-03-20T15:39:17.619Z,100031.04
2023-03-20T15:41:58.228Z,100025.49
2023-03-20T15:44:40.058Z,100028.53
2023-03-20T15:47:22.931Z,100025.59
2023-03-20T15:50:02.927Z,100025.77
2023-03-20T15:52:44.874Z,100032.44
2023-03-20T15:55:21.572Z,100029.48
2023-03-20T15:58:01.086Z,100031.30
2023-03-20T16:00:40.037Z,100037.58
2023-03-20T16:03:18.679Z,100038.04
2023-03-20T16:05:53.021Z,100037.70
2023-03-20T16:08:34.212Z,100040.89
2023-03-20T16:11:11.544Z,100042.36
2023-03-20T16:13:49.902Z,100048.71
2023-03-20T16:16:25.267Z,100048.62
2023-03-20T16:18:59.412Z,100043.70
2023-03-20T16:21:41.404Z,100048.45
2023-03-20T16:24:25.596Z,100055.28
2023-03-20T16:26:59.629Z,100052.73
2023-03-20T16:29:32.575Z,100058.11
2023-03-20T16:32:18.930Z,100061.05
2023-03-20T16:34:53.214Z,100063.95
2023-03-20T16:37:31.128Z,100062.09
2023-03-20T16:40:35.564Z,100065.50
2023-03-20T16:43:20.698Z,100060.99
2023-03-20T16:45:56.675Z,100062.06
2023-03-20T16:48:39.312Z,100067.02
2023-03-20T16:51:21.526Z,100059.22
2023-03-20T16:54:02.715Z,100064.67
2023-03-20T16:56:39.613Z,100065.70
2023-03-20T16:59:17.311Z,100061.95
2023-03-20T17:01:53.012Z,100068.78
2023-03-20T17:04:39.875Z,100067.30
2023-03-20T17:07:19.484Z,100062.29
2023-03-20T17:10:22.008Z,100062.94
2023-03-20T17:12:55.472Z,100064.77
2023-03-20T17:15:28.769Z,100068.73
2023-03-20T17:18:03.504Z,100068.87
2023-03-20T17:20:36.834Z,100069.98
2023-03-20T17:23:19.776Z,100074.89
2023-03-20T17:25:54.398Z,100075.59
2023-03-20T17:28:32.031Z,100076.70
2023-03-20T17:31:05.839Z,100077.34
2023-03-20T17:33:40.527Z,100074.14
2023-03-20T17:36:32.797Z,100071.36
2023-03-20T17:39:05.583Z,100072.47
2023-03-20T17:41:39.109Z,100071.71
2023-03-20T17:44:12.543Z,100072.73
2023-03-20T17:46:57.749Z,100073.84
2023-03-20T17:49:23.071Z,100077.84
2023-03-20T17:51:57.476Z,100073.79
2023-03-20T17:54:30.967Z,100080.30
2023-03-20T17:57:04.120Z,100074.70
2023-03-20T17:59:36.908Z,100074.33
2023-03-20T18:02:13.397Z,100071.72
2023-03-20T18:04:50.099Z,100071.63
2023-03-20T18:07:23.658Z,100071.13
2023-03-20T18:09:57.235Z,100069.21
2023-03-20T18:12:30.964Z,100067.72
2023-03-20T18:15:04.482Z,100066.86
2023-03-20T18:17:37.830Z,100065.30
2023-03-20T18:20:29.764Z,100068.91
2023-03-20T18:23:03.726Z,100063.41
2023-03-20T18:25:37.719Z,100058.61
2023-03-20T18:28:18.926Z,100067.63
2023-03-20T18:30:53.681Z,100067.86
2023-03-20T18:33:28.651Z,100061.23
2023-03-20T18:36:02.247Z,100061.25
2023-03-20T18:38:35.713Z,100063.66
2023-03-20T18:41:09.347Z,100062.05
2023-03-20T18:43:44.233Z,100065.17
2023-03-20T18:46:22.101Z,100068.25
2023-03-20T18:48:56.981Z,100066.17
2023-03-20T18:51:32.822Z,100064.95
2023-03-20T18:54:05.967Z,100061.66
2023-03-20T18:56:39.450Z,100060.47
2023-03-20T18:59:14.416Z,100067.55
2023-03-20T19:01:47.264Z,100070.45
2023-03-20T19:04:22.911Z,100066.55
2023-03-20T19:06:56.670Z,100057.46
2023-03-20T19:09:29.971Z,100060.16
2023-03-20T19:12:02.704Z,100061.05
2023-03-20T19:14:36.072Z,100063.95
2023-03-20T19:17:10.932Z,100060.23
2023-03-20T19:19:44.435Z,100065.52
2023-03-20T19:22:28.981Z,100063.23
2023-03-20T19:24:53.308Z,100057.83
2023-03-20T19:27:26.502Z,100056.94
2023-03-20T19:30:00.786Z,100057.31
2023-03-20T19:32:34.806Z,100060.91
2023-03-20T19:37:47.468Z,100057.11
2023-03-20T19:40:38.353Z,100060.02
2023-03-20T19:43:10.715Z,100057.22
2023-03-20T19:45:46.713Z,100057.93
2023-03-20T19:48:22.665Z,100061.00
2023-03-20T19:50:57.173Z,100057.68
2023-03-20T19:53:31.673Z,100062.98
2023-03-20T19:56:05.023Z,100058.30
2023-03-20T19:58:40.951Z,100053.41
2023-03-20T20:01:25.860Z,100054.77
2023-03-20T20:03:59.474Z,100054.76
2023-03-20T20:06:33.464Z,100053.86
2023-03-20T20:09:06.637Z,100051.94
2023-03-20T20:11:39.821Z,100045.97
2023-03-20T20:14:14.797Z,100042.96
2023-03-20T20:16:52.026Z,100045.86
2023-03-20T20:19:25.044Z,100042.53
2023-03-20T20:22:24.917Z,100042.84
2023-03-20T20:24:34.211Z,100044.71
2023-03-20T20:27:18.723Z,100043.20
2023-03-20T20:29:49.687Z,100043.61
2023-03-20T20:32:26.042Z,100034.52
2023-03-20T20:35:38.815Z,100034.42
2023-03-20T20:38:25.189Z,100037.34
2023-03-20T20:40:17.310Z,100042.51
2023-03-20T20:42:52.242Z,100038.59
2023-03-20T20:45:31.527Z,100040.24
2023-03-20T20:48:07.512Z,100035.95
2023-03-20T20:50:43.523Z,100039.22
2023-03-20T20:53:17.912Z,100030.92
2023-03-20T20:55:51.408Z,100025.52
2023-03-20T20:58:24.796Z,100029.59
2023-03-20T21:00:58.736Z,100028.28
2023-03-20T21:03:32.032Z,100025.25
2023-03-20T21:06:09.674Z,100025.25
2023-03-20T21:08:42.422Z,100021.59
2023-03-20T21:11:16.928Z,100026.45
2023-03-20T21:13:54.943Z,100025.45
2023-03-20T21:16:29.441Z,100022.92
2023-03-20T21:19:02.804Z,100024.19
2023-03-20T21:21:36.020Z,100029.52
2023-03-20T21:24:30.574Z,100032.00
2023-03-20T21:26:46.582Z,100029.48
2023-03-20T21:29:20.939Z,100027.85
2023-03-20T21:31:54.896Z,100034.92
2023-03-20T21:34:29.319Z,100020.48
2023-03-20T21:37:56.156Z,100024.43
2023-03-20T21:39:38.691Z,100022.91
2023-03-20T21:42:16.960Z,100027.09
2023-03-20T21:46:04.601Z,100030.34
2023-03-20T21:50:45.931Z,100031.99
2023-03-20T21:53:16.994Z,100035.77
2023-03-20T21:58:23.898Z,100035.24
2023-03-20T22:03:01.595Z,100037.13
2023-03-20T22:09:09.731Z,100029.38
2023-03-20T22:11:38.589Z,100028.78
2023-03-20T22:16:33.742Z,100024.03
2023-03-20T22:19:29.459Z,100028.69
2023-03-20T22:29:48.237Z,100034.00
2023-03-20T22:39:48.000Z,100032.29
2023-03-20T22:42:38.231Z,100024.83
2023-03-20T22:45:00.133Z,100027.75
2023-03-20T22:46:54.228Z,100027.28
2023-03-20T22:49:27.584Z,100034.16
2023-03-20T22:52:24.546Z,100029.95
2023-03-20T22:54:36.554Z,100032.55
2023-03-20T22:57:09.780Z,100027.70
2023-03-20T22:59:42.710Z,100028.23
2023-03-20T23:02:17.518Z,100028.55
2023-03-20T23:04:49.423Z,100032.19
2023-03-20T23:07:22.869Z,100027.80
2023-03-20T23:09:55.969Z,100022.38
2023-03-20T23:12:28.928Z,100034.41
2023-03-20T23:15:02.174Z,100036.08
2023-03-20T23:17:35.779Z,100029.73
2023-03-20T23:20:12.942Z,100024.80
2023-03-20T23:22:45.539Z,100023.75
2023-03-20T23:25:30.993Z,100018.34
2023-03-20T23:27:55.610Z,100013.81
2023-03-20T23:30:37.904Z,100014.58
2023-03-20T23:33:03.616Z,100015.27
2023-03-20T23:35:37.034Z,100015.02
2023-03-20T23:38:10.370Z,100010.50
2023-03-20T23:40:44.913Z,100005.98
2023-03-20T23:43:19.030Z,100001.78
2023-03-20T23:45:52.515Z,100009.41
2023-03-20T23:48:26.256Z,100018.09
2023-03-20T23:50:59.453Z,100008.19
2023-03-20T23:53:33.572Z,100012.72
2023-03-20T23:56:07.086Z,100010.94
2023-03-20T23:58:47.573Z,100010.84
